sensor_id;sensor_type;location;lat;lon;timestamp;pressure;altitude;pressure_sealevel;temperature;humidity
12781;BME280;6454;43.304;24.344;2023-03-16T00:02:17;99451.25;;;8.38;72.78
12781;BME280;6454;43.304;24.344;2023-03-16T00:04:44;99450.31;;;8.24;72.55
12781;BME280;6454;43.304;24.344;2023-03-16T00:07:12;99460.31;;;8.24;72.95
12781;BME280;6454;43.304;24.344;2023-03-16T00:09:40;99462.00;;;8.20;73.12
12781;BME280;6454;43.304;24.344;2023-03-16T00:12:11;99459.84;;;8.17;72.86
12781;BME280;6454;43.304;24.344;2023-03-16T00:14:40;99464.69;;;8.20;72.92
12781;BME280;6454;43.304;24.344;2023-03-16T00:17:10;99432.88;;;7.88;72.99
12781;BME280;6454;43.304;24.344;2023-03-16T00:19:44;99453.41;;;8.13;72.42
12781;BME280;6454;43.304;24.344;2023-03-16T00:22:12;99472.50;;;8.21;72.47
12781;BME280;6454;43.304;24.344;2023-03-16T00:24:39;99462.25;;;8.18;72.29
12781;BME280;6454;43.304;24.344;2023-03-16T00:27:08;99471.47;;;8.17;72.26
12781;BME280;6454;43.304;24.344;2023-03-16T00:29:40;99469.84;;;8.16;72.01
12781;BME280;6454;43.304;24.344;2023-03-16T00:32:13;99463.75;;;8.06;72.20
12781;BME280;6454;43.304;24.344;2023-03-16T00:34:41;99468.06;;;8.07;72.24
12781;BME280;6454;43.304;24.344;2023-03-16T00:37:08;99457.88;;;7.99;72.57
12781;BME280;6454;43.304;24.344;2023-03-16T00:39:35;99462.25;;;7.95;72.41
12781;BME280;6454;43.304;24.344;2023-03-16T00:42:02;99464.19;;;7.89;72.41
12781;BME280;6454;43.304;24.344;2023-03-16T00:44:28;99436.84;;;7.72;72.07
12781;BME280;6454;43.304;24.344;2023-03-16T00:46:56;99467.47;;;7.86;72.59
12781;BME280;6454;43.304;24.344;2023-03-16T00:49:24;99468.28;;;7.87;72.21
12781;BME280;6454;43.304;24.344;2023-03-16T00:51:50;99474.19;;;7.89;72.10
12781;BME280;6454;43.304;24.344;2023-03-16T00:54:17;99483.63;;;7.91;71.91
12781;BME280;6454;43.304;24.344;2023-03-16T00:56:44;99478.25;;;7.86;71.88
12781;BME280;6454;43.304;24.344;2023-03-16T00:59:11;99478.03;;;7.83;72.01
12781;BME280;6454;43.304;24.344;2023-03-16T01:01:39;99473.78;;;7.76;72.03
12781;BME280;6454;43.304;24.344;2023-03-16T01:04:06;99488.38;;;7.70;71.92
12781;BME280;6454;43.304;24.344;2023-03-16T01:06:35;99485.69;;;7.70;72.22
12781;BME280;6454;43.304;24.344;2023-03-16T01:09:01;99425.16;;;7.19;71.97
12781;BME280;6454;43.304;24.344;2023-03-16T01:11:30;99485.00;;;7.60;72.22
12781;BME280;6454;43.304;24.344;2023-03-16T01:13:58;99497.03;;;7.72;71.41
12781;BME280;6454;43.304;24.344;2023-03-16T01:16:26;99503.00;;;7.69;71.48
12781;BME280;6454;43.304;24.344;2023-03-16T01:18:53;99502.50;;;7.62;71.86
12781;BME280;6454;43.304;24.344;2023-03-16T01:21:20;99507.56;;;7.69;71.06
12781;BME280;6454;43.304;24.344;2023-03-16T01:23:49;99520.59;;;7.62;71.59
12781;BME280;6454;43.304;24.344;2023-03-16T01:26:17;99512.25;;;7.58;70.99
12781;BME280;6454;43.304;24.344;2023-03-16T01:28:45;99523.56;;;7.60;71.37
12781;BME280;6454;43.304;24.344;2023-03-16T01:31:13;99517.69;;;7.53;71.73
12781;BME280;6454;43.304;24.344;2023-03-16T01:33:40;99519.28;;;7.59;71.47
12781;BME280;6454;43.304;24.344;2023-03-16T01:36:10;99527.63;;;7.58;71.21
12781;BME280;6454;43.304;24.344;2023-03-16T01:38:38;99527.06;;;7.61;71.44
12781;BME280;6454;43.304;24.344;2023-03-16T01:41:07;99526.25;;;7.60;71.19
12781;BME280;6454;43.304;24.344;2023-03-16T01:43:51;99526.28;;;7.55;70.84
12781;BME280;6454;43.304;24.344;2023-03-16T01:46:24;99533.06;;;7.53;71.17
12781;BME280;6454;43.304;24.344;2023-03-16T01:49:03;99525.78;;;7.53;70.52
12781;BME280;6454;43.304;24.344;2023-03-16T01:51:36;99535.53;;;7.49;70.54
12781;BME280;6454;43.304;24.344;2023-03-16T01:54:07;99498.78;;;7.20;70.78
12781;BME280;6454;43.304;24.344;2023-03-16T01:56:43;99532.91;;;7.39;70.82
12781;BME280;6454;43.304;24.344;2023-03-16T01:59:15;99540.66;;;7.46;70.72
12781;BME280;6454;43.304;24.344;2023-03-16T02:01:45;99535.06;;;7.42;71.06
12781;BME280;6454;43.304;24.344;2023-03-16T02:07:17;99547.81;;;7.27;71.10
12781;BME280;6454;43.304;24.344;2023-03-16T02:09:47;99552.38;;;7.31;71.23
12781;BME280;6454;43.304;24.344;2023-03-16T02:12:18;99510.75;;;6.98;71.27
12781;BME280;6454;43.304;24.344;2023-03-16T02:14:47;99553.78;;;7.24;71.29
12781;BME280;6454;43.304;24.344;2023-03-16T02:17:16;99557.31;;;7.19;71.09
12781;BME280;6454;43.304;24.344;2023-03-16T02:19:52;99556.78;;;7.17;71.22
12781;BME280;6454;43.304;24.344;2023-03-16T02:22:24;99561.66;;;7.15;71.30
12781;BME280;6454;43.304;24.344;2023-03-16T02:24:51;99567.06;;;7.15;70.96
12781;BME280;6454;43.304;24.344;2023-03-16T02:27:25;99557.88;;;7.11;70.74
12781;BME280;6454;43.304;24.344;2023-03-16T02:30:03;99564.13;;;7.06;71.11
12781;BME280;6454;43.304;24.344;2023-03-16T02:32:32;99572.75;;;7.03;71.20
12781;BME280;6454;43.304;24.344;2023-03-16T02:35:00;99572.53;;;7.00;71.10
12781;BME280;6454;43.304;24.344;2023-03-16T02:37:28;99576.06;;;6.95;71.27
12781;BME280;6454;43.304;24.344;2023-03-16T02:39:58;99577.72;;;6.76;71.62
12781;BME280;6454;43.304;24.344;2023-03-16T02:42:26;99589.81;;;6.84;71.83
12781;BME280;6454;43.304;24.344;2023-03-16T02:44:56;99595.50;;;6.87;72.01
12781;BME280;6454;43.304;24.344;2023-03-16T02:47:29;99552.72;;;6.61;71.98
12781;BME280;6454;43.304;24.344;2023-03-16T02:49:59;99601.13;;;6.91;72.25
12781;BME280;6454;43.304;24.344;2023-03-16T02:52:26;99603.84;;;6.86;71.91
12781;BME280;6454;43.304;24.344;2023-03-16T02:54:53;99599.78;;;6.83;71.98
12781;BME280;6454;43.304;24.344;2023-03-16T02:57:20;99613.06;;;6.70;72.42
12781;BME280;6454;43.304;24.344;2023-03-16T02:59:47;99606.56;;;6.71;72.27
12781;BME280;6454;43.304;24.344;2023-03-16T03:02:13;99614.66;;;6.71;72.27
12781;BME280;6454;43.304;24.344;2023-03-16T03:04:42;99614.16;;;6.64;72.86
12781;BME280;6454;43.304;24.344;2023-03-16T03:07:11;99620.34;;;6.64;72.53
12781;BME280;6454;43.304;24.344;2023-03-16T03:09:39;99610.69;;;6.53;72.44
12781;BME280;6454;43.304;24.344;2023-03-16T03:12:07;99620.13;;;6.45;72.32
12781;BME280;6454;43.304;24.344;2023-03-16T03:14:34;99631.44;;;6.47;72.55
12781;BME280;6454;43.304;24.344;2023-03-16T03:17:02;99623.38;;;6.37;72.91
12781;BME280;6454;43.304;24.344;2023-03-16T03:19:29;99633.59;;;6.45;72.33
12781;BME280;6454;43.304;24.344;2023-03-16T03:22:00;99620.41;;;6.29;72.42
12781;BME280;6454;43.304;24.344;2023-03-16T03:24:29;99638.19;;;6.35;72.75
12781;BME280;6454;43.304;24.344;2023-03-16T03:26:57;99645.47;;;6.34;72.71
12781;BME280;6454;43.304;24.344;2023-03-16T03:29:25;99638.44;;;6.28;72.56
12781;BME280;6454;43.304;24.344;2023-03-16T03:31:59;99645.75;;;6.33;72.65
12781;BME280;6454;43.304;24.344;2023-03-16T03:34:26;99650.31;;;6.32;72.58
12781;BME280;6454;43.304;24.344;2023-03-16T03:36:53;99612.34;;;5.99;72.04
12781;BME280;6454;43.304;24.344;2023-03-16T03:39:22;99587.28;;;5.78;72.13
12781;BME280;6454;43.304;24.344;2023-03-16T03:41:49;99658.94;;;6.24;72.27
12781;BME280;6454;43.304;24.344;2023-03-16T03:44:19;99665.38;;;6.18;72.04
12781;BME280;6454;43.304;24.344;2023-03-16T03:46:46;99662.97;;;6.17;71.89
12781;BME280;6454;43.304;24.344;2023-03-16T03:49:13;99668.34;;;6.12;72.49
12781;BME280;6454;43.304;24.344;2023-03-16T03:51:40;99677.50;;;6.11;72.58
12781;BME280;6454;43.304;24.344;2023-03-16T03:54:07;99682.63;;;6.02;72.59
12781;BME280;6454;43.304;24.344;2023-03-16T03:56:35;99686.38;;;6.01;72.69
12781;BME280;6454;43.304;24.344;2023-03-16T03:59:02;99689.34;;;5.95;72.79
12781;BME280;6454;43.304;24.344;2023-03-16T04:01:29;99681.25;;;5.95;72.92
12781;BME280;6454;43.304;24.344;2023-03-16T04:03:55;99693.38;;;5.92;73.04
12781;BME280;6454;43.304;24.344;2023-03-16T04:06:22;99686.94;;;5.93;73.31
12781;BME280;6454;43.304;24.344;2023-03-16T04:08:49;99698.22;;;5.85;73.12
12781;BME280;6454;43.304;24.344;2023-03-16T04:11:18;99696.53;;;5.84;73.48
12781;BME280;6454;43.304;24.344;2023-03-16T04:13:46;99665.31;;;5.68;73.15
12781;BME280;6454;43.304;24.344;2023-03-16T04:16:13;99703.78;;;5.78;73.50
12781;BME280;6454;43.304;24.344;2023-03-16T04:18:40;99703.06;;;5.88;73.53
12781;BME280;6454;43.304;24.344;2023-03-16T04:21:12;99712.50;;;5.91;73.29
12781;BME280;6454;43.304;24.344;2023-03-16T04:23:40;99704.63;;;5.84;73.38
12781;BME280;6454;43.304;24.344;2023-03-16T04:26:07;99708.97;;;5.85;73.56
12781;BME280;6454;43.304;24.344;2023-03-16T04:28:34;99708.94;;;5.80;73.76
12781;BME280;6454;43.304;24.344;2023-03-16T04:31:03;99723.97;;;5.76;73.66
12781;BME280;6454;43.304;24.344;2023-03-16T04:33:31;99678.16;;;5.46;73.57
12781;BME280;6454;43.304;24.344;2023-03-16T04:35:59;99718.56;;;5.71;73.88
12781;BME280;6454;43.304;24.344;2023-03-16T04:38:26;99717.78;;;5.70;74.29
12781;BME280;6454;43.304;24.344;2023-03-16T04:40:53;99721.81;;;5.63;73.93
12781;BME280;6454;43.304;24.344;2023-03-16T04:43:20;99718.81;;;5.59;74.38
12781;BME280;6454;43.304;24.344;2023-03-16T04:45:48;99723.97;;;5.61;74.66
12781;BME280;6454;43.304;24.344;2023-03-16T04:48:16;99744.66;;;5.60;75.14
12781;BME280;6454;43.304;24.344;2023-03-16T04:50:43;99745.19;;;5.57;75.59
12781;BME280;6454;43.304;24.344;2023-03-16T04:53:09;99751.38;;;5.58;75.55
12781;BME280;6454;43.304;24.344;2023-03-16T04:55:36;99749.22;;;5.55;75.71
12781;BME280;6454;43.304;24.344;2023-03-16T04:58:03;99761.03;;;5.54;76.13
12781;BME280;6454;43.304;24.344;2023-03-16T05:00:30;99768.56;;;5.52;75.86
12781;BME280;6454;43.304;24.344;2023-03-16T05:02:57;99761.59;;;5.56;76.02
12781;BME280;6454;43.304;24.344;2023-03-16T05:05:26;99763.66;;;5.39;76.46
12781;BME280;6454;43.304;24.344;2023-03-16T05:07:52;99784.44;;;5.48;76.89
12781;BME280;6454;43.304;24.344;2023-03-16T05:10:19;99779.84;;;5.49;77.18
12781;BME280;6454;43.304;24.344;2023-03-16T05:12:46;99788.19;;;5.47;77.54
12781;BME280;6454;43.304;24.344;2023-03-16T05:15:13;99787.13;;;5.48;77.54
12781;BME280;6454;43.304;24.344;2023-03-16T05:17:40;99789.78;;;5.43;77.68
12781;BME280;6454;43.304;24.344;2023-03-16T05:20:09;99790.03;;;5.42;77.19
12781;BME280;6454;43.304;24.344;2023-03-16T05:22:41;99803.22;;;5.43;77.64
12781;BME280;6454;43.304;24.344;2023-03-16T05:25:09;99804.50;;;5.31;77.67
12781;BME280;6454;43.304;24.344;2023-03-16T05:27:39;99819.56;;;5.32;78.28
12781;BME280;6454;43.304;24.344;2023-03-16T05:30:07;99744.03;;;4.91;78.21
12781;BME280;6454;43.304;24.344;2023-03-16T05:32:35;99818.03;;;5.46;78.53
12781;BME280;6454;43.304;24.344;2023-03-16T05:35:02;99832.56;;;5.45;78.54
12781;BME280;6454;43.304;24.344;2023-03-16T05:37:29;99831.50;;;5.46;78.59
12781;BME280;6454;43.304;24.344;2023-03-16T05:39:58;99832.28;;;5.46;78.10
12781;BME280;6454;43.304;24.344;2023-03-16T05:42:25;99836.81;;;5.36;79.19
12781;BME280;6454;43.304;24.344;2023-03-16T05:44:52;99837.06;;;5.34;78.45
12781;BME280;6454;43.304;24.344;2023-03-16T05:47:19;99838.97;;;5.39;78.21
12781;BME280;6454;43.304;24.344;2023-03-16T05:49:46;99846.78;;;5.40;79.12
12781;BME280;6454;43.304;24.344;2023-03-16T05:52:12;99845.97;;;5.40;79.44
12781;BME280;6454;43.304;24.344;2023-03-16T05:54:39;99854.31;;;5.38;79.02
12781;BME280;6454;43.304;24.344;2023-03-16T05:57:08;99858.03;;;5.32;79.54
12781;BME280;6454;43.304;24.344;2023-03-16T05:59:35;99860.16;;;5.30;79.12
12781;BME280;6454;43.304;24.344;2023-03-16T06:02:02;99862.03;;;5.30;79.45
12781;BME280;6454;43.304;24.344;2023-03-16T06:04:29;99866.59;;;5.29;79.62
12781;BME280;6454;43.304;24.344;2023-03-16T06:06:55;99864.75;;;5.35;79.63
12781;BME280;6454;43.304;24.344;2023-03-16T06:09:22;99868.50;;;5.34;79.58
12781;BME280;6454;43.304;24.344;2023-03-16T06:11:49;99867.69;;;5.28;79.91
12781;BME280;6454;43.304;24.344;2023-03-16T06:14:17;99886.28;;;5.35;79.82
12781;BME280;6454;43.304;24.344;2023-03-16T06:16:44;99889.78;;;5.35;80.45
12781;BME280;6454;43.304;24.344;2023-03-16T06:19:11;99891.97;;;5.38;80.35
12781;BME280;6454;43.304;24.344;2023-03-16T06:21:37;99897.31;;;5.33;80.54
12781;BME280;6454;43.304;24.344;2023-03-16T06:24:05;99908.03;;;5.28;79.54
12781;BME280;6454;43.304;24.344;2023-03-16T06:26:33;99906.91;;;5.24;80.40
12781;BME280;6454;43.304;24.344;2023-03-16T06:29:00;99897.50;;;5.27;80.58
12781;BME280;6454;43.304;24.344;2023-03-16T06:31:28;99909.13;;;5.32;80.49
12781;BME280;6454;43.304;24.344;2023-03-16T06:33:55;99911.25;;;5.30;80.19
12781;BME280;6454;43.304;24.344;2023-03-16T06:36:22;99908.03;;;5.28;80.32
12781;BME280;6454;43.304;24.344;2023-03-16T06:38:48;99914.72;;;5.26;80.29
12781;BME280;6454;43.304;24.344;2023-03-16T06:41:16;99916.28;;;5.21;80.60
12781;BME280;6454;43.304;24.344;2023-03-16T06:43:42;99916.84;;;5.23;81.04
12781;BME280;6454;43.304;24.344;2023-03-16T06:46:09;99924.41;;;5.27;81.62
12781;BME280;6454;43.304;24.344;2023-03-16T06:48:38;99926.50;;;5.19;81.73
12781;BME280;6454;43.304;24.344;2023-03-16T06:51:06;99924.34;;;5.21;82.09
12781;BME280;6454;43.304;24.344;2023-03-16T06:53:34;99932.19;;;5.23;82.08
12781;BME280;6454;43.304;24.344;2023-03-16T06:56:00;99938.56;;;5.17;81.93
12781;BME280;6454;43.304;24.344;2023-03-16T06:58:27;99939.31;;;5.07;81.68
12781;BME280;6454;43.304;24.344;2023-03-16T07:00:54;99951.66;;;5.03;84.00
12781;BME280;6454;43.304;24.344;2023-03-16T07:03:21;99952.69;;;5.02;83.92
12781;BME280;6454;43.304;24.344;2023-03-16T07:05:49;99960.72;;;4.97;84.70
12781;BME280;6454;43.304;24.344;2023-03-16T07:08:16;99956.44;;;5.01;84.71
12781;BME280;6454;43.304;24.344;2023-03-16T07:10:42;99968.31;;;5.05;84.80
12781;BME280;6454;43.304;24.344;2023-03-16T07:13:09;99968.47;;;4.94;85.02
12781;BME280;6454;43.304;24.344;2023-03-16T07:15:36;99964.97;;;4.93;84.95
12781;BME280;6454;43.304;24.344;2023-03-16T07:18:03;99973.59;;;4.95;85.29
12781;BME280;6454;43.304;24.344;2023-03-16T07:20:29;99970.97;;;5.00;85.17
12781;BME280;6454;43.304;24.344;2023-03-16T07:23:01;99966.31;;;4.91;84.88
12781;BME280;6454;43.304;24.344;2023-03-16T07:25:27;99986.78;;;4.97;85.66
12781;BME280;6454;43.304;24.344;2023-03-16T07:27:54;99979.56;;;5.02;84.91
12781;BME280;6454;43.304;24.344;2023-03-16T07:30:21;99988.50;;;5.08;84.82
12781;BME280;6454;43.304;24.344;2023-03-16T07:32:49;99986.06;;;5.06;85.23
12781;BME280;6454;43.304;24.344;2023-03-16T07:35:16;99992.91;;;5.19;84.57
12781;BME280;6454;43.304;24.344;2023-03-16T07:37:43;99995.31;;;5.15;83.62
12781;BME280;6454;43.304;24.344;2023-03-16T07:40:12;100002.81;;;5.13;84.15
12781;BME280;6454;43.304;24.344;2023-03-16T07:42:40;100003.31;;;5.10;83.97
12781;BME280;6454;43.304;24.344;2023-03-16T07:45:07;99998.94;;;5.04;83.79
12781;BME280;6454;43.304;24.344;2023-03-16T07:47:34;100012.16;;;5.06;83.20
12781;BME280;6454;43.304;24.344;2023-03-16T07:50:01;100010.31;;;5.11;82.96
12781;BME280;6454;43.304;24.344;2023-03-16T07:52:28;100022.19;;;5.15;82.27
12781;BME280;6454;43.304;24.344;2023-03-16T07:54:55;100017.91;;;5.19;82.65
12781;BME280;6454;43.304;24.344;2023-03-16T07:57:23;100021.72;;;5.23;82.99
12781;BME280;6454;43.304;24.344;2023-03-16T07:59:50;100022.34;;;5.31;82.58
12781;BME280;6454;43.304;24.344;2023-03-16T08:02:18;100030.41;;;5.31;82.29
12781;BME280;6454;43.304;24.344;2023-03-16T08:04:46;100033.06;;;5.26;81.79
12781;BME280;6454;43.304;24.344;2023-03-16T08:07:14;100039.84;;;5.33;81.70
12781;BME280;6454;43.304;24.344;2023-03-16T08:09:41;100038.47;;;5.31;81.28
12781;BME280;6454;43.304;24.344;2023-03-16T08:12:08;100037.41;;;5.32;81.36
12781;BME280;6454;43.304;24.344;2023-03-16T08:14:37;100014.38;;;5.14;80.98
12781;BME280;6454;43.304;24.344;2023-03-16T08:17:05;100038.22;;;5.32;81.51
12781;BME280;6454;43.304;24.344;2023-03-16T08:19:32;100051.75;;;5.42;81.79
12781;BME280;6454;43.304;24.344;2023-03-16T08:21:58;100043.84;;;5.31;80.74
12781;BME280;6454;43.304;24.344;2023-03-16T08:24:26;100049.66;;;5.49;80.14
12781;BME280;6454;43.304;24.344;2023-03-16T08:26:54;100052.31;;;5.44;79.38
12781;BME280;6454;43.304;24.344;2023-03-16T08:29:21;100055.53;;;5.46;78.36
12781;BME280;6454;43.304;24.344;2023-03-16T08:31:49;100059.81;;;5.42;78.61
12781;BME280;6454;43.304;24.344;2023-03-16T08:34:15;100057.44;;;5.46;78.42
12781;BME280;6454;43.304;24.344;2023-03-16T08:36:43;100067.69;;;5.49;77.78
12781;BME280;6454;43.304;24.344;2023-03-16T08:39:10;100065.56;;;5.51;78.34
12781;BME280;6454;43.304;24.344;2023-03-16T08:41:37;100063.72;;;5.56;79.09
12781;BME280;6454;43.304;24.344;2023-03-16T08:44:05;100066.22;;;5.63;78.06
12781;BME280;6454;43.304;24.344;2023-03-16T08:46:33;100067.78;;;5.59;78.30
12781;BME280;6454;43.304;24.344;2023-03-16T08:49:01;100072.09;;;5.60;78.12
12781;BME280;6454;43.304;24.344;2023-03-16T08:51:28;100076.94;;;5.58;76.96
12781;BME280;6454;43.304;24.344;2023-03-16T08:53:55;100071.28;;;5.59;77.34
12781;BME280;6454;43.304;24.344;2023-03-16T08:56:22;100083.16;;;5.63;78.18
12781;BME280;6454;43.304;24.344;2023-03-16T08:58:49;100086.66;;;5.64;77.20
12781;BME280;6454;43.304;24.344;2023-03-16T09:01:16;100089.88;;;5.61;78.28
12781;BME280;6454;43.304;24.344;2023-03-16T09:03:44;100087.19;;;5.66;77.74
12781;BME280;6454;43.304;24.344;2023-03-16T09:06:14;100083.22;;;5.73;77.32
12781;BME280;6454;43.304;24.344;2023-03-16T09:08:41;100031.81;;;5.38;77.21
12781;BME280;6454;43.304;24.344;2023-03-16T09:11:11;100092.94;;;5.74;77.73
12781;BME280;6454;43.304;24.344;2023-03-16T09:13:40;100101.63;;;5.81;77.39
12781;BME280;6454;43.304;24.344;2023-03-16T09:16:08;100097.88;;;5.82;77.06
12781;BME280;6454;43.304;24.344;2023-03-16T09:18:36;100096.44;;;5.75;77.09
12781;BME280;6454;43.304;24.344;2023-03-16T09:21:06;100101.34;;;5.78;78.08
12781;BME280;6454;43.304;24.344;2023-03-16T09:37:35;100104.22;;;6.35;73.87
12781;BME280;6454;43.304;24.344;2023-03-16T09:40:02;100112.97;;;6.15;74.36
12781;BME280;6454;43.304;24.344;2023-03-16T09:42:33;100102.84;;;5.96;75.20
12781;BME280;6454;43.304;24.344;2023-03-16T09:45:08;100106.19;;;5.81;76.18
12781;BME280;6454;43.304;24.344;2023-03-16T09:47:40;100122.16;;;5.88;77.17
12781;BME280;6454;43.304;24.344;2023-03-16T09:50:14;100088.19;;;5.55;77.78
12781;BME280;6454;43.304;24.344;2023-03-16T09:52:50;100128.25;;;5.78;78.45
12781;BME280;6454;43.304;24.344;2023-03-16T09:55:25;100127.94;;;5.74;79.00
12781;BME280;6454;43.304;24.344;2023-03-16T09:57:53;100132.00;;;5.77;78.40
12781;BME280;6454;43.304;24.344;2023-03-16T10:00:24;100088.38;;;5.43;79.58
12781;BME280;6454;43.304;24.344;2023-03-16T10:03:10;100136.47;;;5.66;79.99
12781;BME280;6454;43.304;24.344;2023-03-16T10:05:40;100100.28;;;5.52;79.76
12781;BME280;6454;43.304;24.344;2023-03-16T10:08:12;100112.09;;;5.51;79.57
12781;BME280;6454;43.304;24.344;2023-03-16T10:10:54;100133.47;;;5.63;79.70
12781;BME280;6454;43.304;24.344;2023-03-16T10:13:31;100127.84;;;5.64;80.34
12781;BME280;6454;43.304;24.344;2023-03-16T10:16:03;100134.09;;;5.70;79.71
12781;BME280;6454;43.304;24.344;2023-03-16T10:18:38;100131.44;;;5.75;79.98
12781;BME280;6454;43.304;24.344;2023-03-16T10:21:11;100101.22;;;5.41;80.22
12781;BME280;6454;43.304;24.344;2023-03-16T10:23:41;100137.69;;;5.80;79.51
12781;BME280;6454;43.304;24.344;2023-03-16T10:26:12;100136.31;;;5.78;80.35
12781;BME280;6454;43.304;24.344;2023-03-16T10:28:39;100134.25;;;5.85;80.58
12781;BME280;6454;43.304;24.344;2023-03-16T10:31:08;100132.84;;;5.82;79.81
12781;BME280;6454;43.304;24.344;2023-03-16T10:33:36;100138.38;;;5.93;79.62
12781;BME280;6454;43.304;24.344;2023-03-16T10:36:11;100137.09;;;6.00;79.95
12781;BME280;6454;43.304;24.344;2023-03-16T10:38:43;100136.28;;;6.00;79.09
12781;BME280;6454;43.304;24.344;2023-03-16T10:41:23;100141.66;;;6.00;79.18
12781;BME280;6454;43.304;24.344;2023-03-16T10:43:54;100136.28;;;6.00;78.84
12781;BME280;6454;43.304;24.344;2023-03-16T10:46:23;100132.75;;;5.99;78.83
12781;BME280;6454;43.304;24.344;2023-03-16T10:48:51;100137.09;;;6.00;79.13
12781;BME280;6454;43.304;24.344;2023-03-16T10:51:25;100137.91;;;6.01;78.98
12781;BME280;6454;43.304;24.344;2023-03-16T10:53:57;100144.16;;;6.11;80.03
12781;BME280;6454;43.304;24.344;2023-03-16T10:56:33;100131.25;;;6.08;79.87
12781;BME280;6454;43.304;24.344;2023-03-16T10:59:11;100108.09;;;5.80;80.04
12781;BME280;6454;43.304;24.344;2023-03-16T11:01:43;100138.88;;;5.90;80.73
12781;BME280;6454;43.304;24.344;2023-03-16T11:04:12;100134.63;;;5.99;80.93
12781;BME280;6454;43.304;24.344;2023-03-16T11:06:47;100137.13;;;6.05;80.20
12781;BME280;6454;43.304;24.344;2023-03-16T11:09:22;100142.00;;;6.08;80.71
12781;BME280;6454;43.304;24.344;2023-03-16T11:26:55;100139.59;;;6.95;75.33
12781;BME280;6454;43.304;24.344;2023-03-16T11:29:27;100146.00;;;6.84;75.86
12781;BME280;6454;43.304;24.344;2023-03-16T11:32:01;100140.59;;;6.79;75.09
12781;BME280;6454;43.304;24.344;2023-03-16T11:34:31;100069.13;;;6.25;75.90
12781;BME280;6454;43.304;24.344;2023-03-16T11:37:04;100141.56;;;6.63;76.37
12781;BME280;6454;43.304;24.344;2023-03-16T11:39:42;100146.72;;;6.65;75.60
12781;BME280;6454;43.304;24.344;2023-03-16T11:42:26;100140.16;;;6.51;75.10
12781;BME280;6454;43.304;24.344;2023-03-16T11:44:59;100139.06;;;6.52;76.49
12781;BME280;6454;43.304;24.344;2023-03-16T11:47:41;100141.22;;;6.49;76.22
12781;BME280;6454;43.304;24.344;2023-03-16T11:50:13;100138.25;;;6.51;77.22
12781;BME280;6454;43.304;24.344;2023-03-16T11:52:49;100147.16;;;6.52;76.85
12781;BME280;6454;43.304;24.344;2023-03-16T11:55:27;100140.41;;;6.49;76.88
12781;BME280;6454;43.304;24.344;2023-03-16T11:58:05;100136.09;;;6.48;76.19
12781;BME280;6454;43.304;24.344;2023-03-16T12:00:44;100142.56;;;6.47;76.55
12781;BME280;6454;43.304;24.344;2023-03-16T12:03:32;100141.22;;;6.49;76.45
12781;BME280;6454;43.304;24.344;2023-03-16T12:06:08;100142.59;;;6.52;76.76
12781;BME280;6454;43.304;24.344;2023-03-16T12:09:06;100138.06;;;6.63;76.61
12781;BME280;6454;43.304;24.344;2023-03-16T12:11:44;100140.44;;;6.54;77.31
12781;BME280;6454;43.304;24.344;2023-03-16T12:14:23;100139.38;;;6.55;77.63
12781;BME280;6454;43.304;24.344;2023-03-16T12:16:55;100143.47;;;6.63;76.90
12781;BME280;6454;43.304;24.344;2023-03-16T12:19:29;100143.47;;;6.63;76.73
12781;BME280;6454;43.304;24.344;2023-03-16T12:22:02;100138.91;;;6.73;77.33
12781;BME280;6454;43.304;24.344;2023-03-16T12:24:38;100140.59;;;6.79;77.03
12781;BME280;6454;43.304;24.344;2023-03-16T12:27:11;100148.47;;;6.91;76.51
12781;BME280;6454;43.304;24.344;2023-03-16T12:29:52;100145.75;;;6.91;75.36
12781;BME280;6454;43.304;24.344;2023-03-16T12:32:35;100154.94;;;6.90;76.12
12781;BME280;6454;43.304;24.344;2023-03-16T12:35:16;100104.38;;;6.60;74.73
12781;BME280;6454;43.304;24.344;2023-03-16T12:37:55;100152.81;;;6.97;74.89
12781;BME280;6454;43.304;24.344;2023-03-16T12:40:32;100158.19;;;6.92;75.11
12781;BME280;6454;43.304;24.344;2023-03-16T12:43:21;100158.19;;;6.92;74.90
12781;BME280;6454;43.304;24.344;2023-03-16T12:45:59;100163.31;;;6.93;74.26
12781;BME280;6454;43.304;24.344;2023-03-16T12:48:31;100167.84;;;6.83;75.05
12781;BME280;6454;43.304;24.344;2023-03-16T12:51:00;100165.66;;;6.80;74.35
12781;BME280;6454;43.304;24.344;2023-03-16T12:53:41;100155.09;;;6.73;74.02
12781;BME280;6454;43.304;24.344;2023-03-16T12:56:10;100167.00;;;6.77;74.29
12781;BME280;6454;43.304;24.344;2023-03-16T12:58:46;100164.50;;;6.71;75.18
12781;BME280;6454;43.304;24.344;2023-03-16T13:01:16;100168.38;;;6.80;73.39
12781;BME280;6454;43.304;24.344;2023-03-16T13:03:46;100172.66;;;6.81;73.31
12781;BME280;6454;43.304;24.344;2023-03-16T13:06:20;100170.50;;;6.78;74.13
12781;BME280;6454;43.304;24.344;2023-03-16T13:08:52;100169.41;;;6.79;73.90
12781;BME280;6454;43.304;24.344;2023-03-16T13:11:21;100174.06;;;6.88;74.38
12781;BME280;6454;43.304;24.344;2023-03-16T13:13:50;100178.91;;;6.86;74.77
12781;BME280;6454;43.304;24.344;2023-03-16T13:16:27;100177.03;;;6.87;74.26
12781;BME280;6454;43.304;24.344;2023-03-16T13:18:55;100183.50;;;6.91;74.31
12781;BME280;6454;43.304;24.344;2023-03-16T13:21:33;100196.19;;;6.90;74.52
12781;BME280;6454;43.304;24.344;2023-03-16T13:24:13;100187.56;;;6.93;74.10
12781;BME280;6454;43.304;24.344;2023-03-16T13:26:49;100201.06;;;6.93;73.99
12781;BME280;6454;43.304;24.344;2023-03-16T13:29:20;100198.66;;;6.97;74.71
12781;BME280;6454;43.304;24.344;2023-03-16T13:31:50;100203.44;;;6.85;75.59
12781;BME280;6454;43.304;24.344;2023-03-16T13:34:23;100202.97;;;6.93;74.98
12781;BME280;6454;43.304;24.344;2023-03-16T13:36:53;100208.88;;;6.90;74.82
12781;BME280;6454;43.304;24.344;2023-03-16T13:39:23;100163.34;;;6.57;75.19
12781;BME280;6454;43.304;24.344;2023-03-16T13:41:57;100208.88;;;6.90;75.03
12781;BME280;6454;43.304;24.344;2023-03-16T13:44:25;100204.25;;;6.85;74.27
12781;BME280;6454;43.304;24.344;2023-03-16T13:46:54;100223.38;;;6.84;74.86
12781;BME280;6454;43.304;24.344;2023-03-16T13:49:21;100210.16;;;6.82;75.78
12781;BME280;6454;43.304;24.344;2023-03-16T13:51:48;100208.00;;;6.84;75.69
12781;BME280;6454;43.304;24.344;2023-03-16T13:54:23;100210.97;;;6.78;76.57